Portada
METAR-TAF:

METAR-TAF

Aeroports :

Aeroport de Tolosa-Blagnac

Tolosa, França

latitud: 43-38N, longitud: 001-22E, altitud: 152 m

Observació

L'informe es va fer fa 29 minuts, a les 22:00 UTC
Vent 8 kt del Oest/Nord-Oest
Temperatura 24°C
Humitat 41%
Pressió 1016 hPa
Visibilitat 10 km o més
sense núvols per sota de 1500 mi sense presència de cumulonimbus.

METAR: LFBO 162200Z AUTO 29008KT CAVOK 24/10 Q1016 NOSIG

Hora: 00:29 (22:29 UTC)

Pronòstic

L'informe es va fer fa 5 hores i 29 minuts, a les 17:00 UTC
Pronòstic vàlid del 16 a les 18 UTC al 17 a les 24 UTC
Vent 6 kt del Oest/Nord-Oest
Visibilitat 10 km o més
sense núvols per sota de 1500 mi sense presència de cumulonimbus.

TAF: LFBO 161700Z 1618/1724 30006KT CAVOK

Observacions i pronòstics meteorològics de més de 4000 aeroports (METAR i TAF).

Les estacions disponibles són els punts grocs i vermells al mapa.

Posi el ratolí al punt desitjat per veure el nom de l'estació.

Feu clic per veure les observacions i els pronòstics meteorològics.

Per canviar el mapa: feu clic els botons verds amb una creu de color negre per apropar; al botó verd amb un guió per allunyar la imatge; o en les fletxes verdes per a mapes adjacents.


METAR-TAF: